Time;durP1;ratioP1;P1;durP2;ratioP2;P2;SDS_P1;SDS_P2;PMS_P1;PMS_P2;Temp;Humidity;BMP_temperature;BMP_pressure;BME280_temperature;BME280_humidity;BME280_pressure;Samples;Min_cycle;Max_cycle;Signal;HPM_P1;HPM_P2
2022/09/05 00:02:34;;;;;;;1.13;1.07;;;;;;;15.46;97.96;99933.44;5089861;28;20693;-65
2022/09/05 00:05:20;;;;;;;0.70;0.70;;;;;;;15.47;97.58;99929.91;5088959;28;20227;-65
2022/09/05 00:07:58;;;;;;;0.63;0.63;;;;;;;15.44;97.33;99943.06;5089259;28;20214;-58
2022/09/05 00:10:34;;;;;;;0.90;0.80;;;;;;;15.35;97.47;99929.94;5089071;28;20209;-64
2022/09/05 00:13:03;;;;;;;0.70;0.70;;;;;;;15.29;97.37;99937.34;5089709;28;20597;-65
2022/09/05 00:15:42;;;;;;;1.60;0.60;;;;;;;15.27;97.68;99934.06;5089648;28;20724;-65
2022/09/05 00:18:25;;;;;;;1.20;1.00;;;;;;;15.18;97.67;99940.75;5089795;28;20231;-58
2022/09/05 00:20:59;;;;;;;0.47;0.47;;;;;;;15.14;97.56;99932.44;5089109;28;20685;-65
2022/09/05 00:23:40;;;;;;;0.40;0.40;;;;;;;15.12;98.32;99934.31;5091042;28;20230;-66
2022/09/05 00:26:28;;;;;;;0.53;0.53;;;;;;;15.10;98.07;99925.91;5092969;28;20199;-65
2022/09/05 00:29:04;;;;;;;0.50;0.50;;;;;;;15.12;97.81;99924.00;5093706;28;20226;-58
2022/09/05 00:31:45;;;;;;;0.57;0.57;;;;;;;15.12;97.35;99926.59;5092760;28;20198;-65
2022/09/05 00:34:26;;;;;;;1.00;0.63;;;;;;;15.16;96.89;99922.84;5093020;28;20222;-65
2022/09/05 00:36:55;;;;;;;0.87;0.80;;;;;;;15.11;96.62;99919.81;5093177;28;20206;-58
2022/09/05 00:39:28;;;;;;;0.60;0.60;;;;;;;15.07;96.48;99928.72;5093688;28;20222;-65
2022/09/05 00:41:59;;;;;;;0.57;0.57;;;;;;;15.07;96.93;99936.44;5093438;28;20203;-58
2022/09/05 00:44:30;;;;;;;0.90;0.70;;;;;;;15.06;95.92;99939.94;5093183;28;20605;-65
2022/09/05 00:47:05;;;;;;;0.60;0.57;;;;;;;15.05;96.58;99943.47;5093451;28;20226;-62
2022/09/05 00:49:39;;;;;;;0.50;0.50;;;;;;;15.01;96.37;99942.06;5092841;28;20206;-58
2022/09/05 00:52:13;;;;;;;0.70;0.70;;;;;;;15.03;96.48;99939.38;5093145;28;20209;-65
2022/09/05 00:55:00;;;;;;;0.63;0.63;;;;;;;15.01;96.34;99951.53;5092545;28;20692;-65
2022/09/05 00:57:46;;;;;;;1.13;1.00;;;;;;;15.01;96.23;99952.38;5092890;28;20214;-66
2022/09/05 01:00:16;;;;;;;0.67;0.67;;;;;;;14.97;96.56;99950.13;5092522;28;20205;-65
2022/09/05 01:03:18;;;;;;;0.60;0.53;;;;;;;14.96;96.19;99949.34;5092339;28;20237;-58
2022/09/05 01:05:56;;;;;;;0.60;0.50;;;;;;;14.93;97.72;99944.41;5053431;28;20236;-58
2022/09/05 01:08:41;;;;;;;0.40;0.40;;;;;;;14.89;98.64;99938.69;5092078;28;20954;-65
2022/09/05 01:11:17;;;;;;;0.47;0.47;;;;;;;14.85;99.07;99941.59;5092485;28;20247;-65
2022/09/05 01:13:49;;;;;;;1.23;0.60;;;;;;;14.82;99.76;99947.00;5092327;28;20632;-65
2022/09/05 01:16:24;;;;;;;0.40;0.40;;;;;;;14.81;100.00;99945.34;5091696;28;20208;-64
2022/09/05 01:19:05;;;;;;;0.87;0.50;;;;;;;14.77;100.00;99941.34;5092754;28;20241;-65
2022/09/05 01:21:54;;;;;;;0.43;0.43;;;;;;;14.80;100.00;99938.56;5091977;28;20252;-65
2022/09/05 01:24:51;;;;;;;0.40;0.40;;;;;;;14.72;100.00;99936.56;5091811;28;20240;-58
2022/09/05 01:27:46;;;;;;;0.50;0.50;;;;;;;14.74;100.00;99933.88;5091939;28;20220;-65
2022/09/05 01:30:15;;;;;;;0.67;0.67;;;;;;;14.68;100.00;99933.41;5091859;28;20198;-64
2022/09/05 01:32:50;;;;;;;0.60;0.50;;;;;;;14.70;100.00;99933.28;5091784;28;20229;-58
2022/09/05 01:35:59;;;;;;;0.50;0.50;;;;;;;14.66;100.00;99947.31;5091153;28;20194;-58
2022/09/05 01:38:33;;;;;;;0.70;0.60;;;;;;;14.63;100.00;99938.09;5090561;28;20652;-57
2022/09/05 01:41:10;;;;;;;0.47;0.47;;;;;;;14.66;100.00;99937.00;5091239;28;20196;-66
2022/09/05 01:44:07;;;;;;;0.87;0.87;;;;;;;14.54;100.00;99933.63;5091676;28;20222;-58
2022/09/05 01:46:43;;;;;;;0.73;0.73;;;;;;;14.51;100.00;99933.81;5091598;28;20197;-65
2022/09/05 01:49:23;;;;;;;0.77;0.60;;;;;;;14.53;100.00;99926.03;5091286;28;20619;-65
2022/09/05 01:52:08;;;;;;;0.73;0.73;;;;;;;14.58;100.00;99937.63;5091572;28;20196;-65
2022/09/05 01:54:47;;;;;;;1.00;0.73;;;;;;;14.54;100.00;99937.94;5091491;28;20205;-59
2022/09/05 01:57:24;;;;;;;0.60;0.57;;;;;;;14.52;100.00;99932.94;5091225;28;20202;-64
2022/09/05 02:00:01;;;;;;;0.67;0.67;;;;;;;14.49;100.00;99936.53;5091250;28;20198;-57
2022/09/05 02:02:44;;;;;;;0.83;0.83;;;;;;;14.48;100.00;99927.13;5091396;28;20217;-65
2022/09/05 02:05:35;;;;;;;0.73;0.60;;;;;;;14.51;100.00;99928.66;5091047;28;20226;-65
2022/09/05 02:08:23;;;;;;;0.47;0.27;;;;;;;14.43;100.00;99936.16;5091249;28;20308;-65
2022/09/05 02:11:09;;;;;;;1.17;0.70;;;;;;;14.43;100.00;99946.47;5090846;28;20205;-65
2022/09/05 02:14:00;;;;;;;0.73;0.60;;;;;;;14.48;100.00;99944.34;5091211;28;20226;-65
2022/09/05 02:16:41;;;;;;;0.50;0.50;;;;;;;14.48;100.00;99944.34;5085282;28;20706;-65
2022/09/05 02:19:15;;;;;;;0.40;0.40;;;;;;;14.52;100.00;99934.69;5090633;28;20229;-65
2022/09/05 02:21:54;;;;;;;0.97;0.80;;;;;;;14.52;100.00;99938.06;5090517;28;20197;-64
2022/09/05 02:24:25;;;;;;;1.00;0.60;;;;;;;14.56;100.00;99942.06;5090590;28;20241;-65
2022/09/05 02:27:07;;;;;;;1.60;0.90;;;;;;;14.55;100.00;99940.41;5090445;28;20206;-65
2022/09/05 02:29:39;;;;;;;0.80;0.80;;;;;;;14.55;100.00;99937.84;5090695;28;20202;-58
2022/09/05 02:32:17;;;;;;;0.97;0.67;;;;;;;14.56;100.00;99941.22;5091106;28;20666;-58
2022/09/05 02:34:54;;;;;;;0.67;0.67;;;;;;;14.59;100.00;99944.38;5090673;28;20599;-65
2022/09/05 02:37:30;;;;;;;0.50;0.50;;;;;;;14.63;100.00;99938.09;5090196;28;20593;-65
2022/09/05 02:40:03;;;;;;;1.47;1.10;;;;;;;14.64;100.00;99939.72;5090536;28;20223;-64
2022/09/05 02:42:39;;;;;;;0.93;0.60;;;;;;;14.57;100.00;99937.72;5090111;28;20234;-65
2022/09/05 02:45:18;;;;;;;0.43;0.43;;;;;;;14.56;100.00;99941.22;5090780;28;20240;-58
2022/09/05 02:47:55;;;;;;;0.70;0.50;;;;;;;14.49;100.00;99940.84;5089590;28;20222;-65
2022/09/05 02:50:36;;;;;;;1.33;0.83;;;;;;;14.51;100.00;99938.97;5090317;28;20202;-65
2022/09/05 02:53:04;;;;;;;0.80;0.80;;;;;;;14.54;100.00;99941.34;5090244;28;20300;-58
2022/09/05 02:55:48;;;;;;;0.93;0.60;;;;;;;14.54;100.00;99954.19;5090493;28;20197;-65
2022/09/05 02:58:32;;;;;;;0.57;0.57;;;;;;;14.54;100.00;99954.19;5090853;28;20232;-57
2022/09/05 03:01:08;;;;;;;1.07;0.90;;;;;;;14.59;100.00;99956.44;5090217;28;20186;-57
2022/09/05 03:03:42;;;;;;;0.43;0.43;;;;;;;14.58;100.00;99949.66;5090010;28;20224;-65
2022/09/05 03:06:29;;;;;;;0.70;0.70;;;;;;;14.56;100.00;99952.34;5089964;28;20240;-64
2022/09/05 03:09:22;;;;;;;1.33;0.70;;;;;;;14.59;100.00;99946.97;5090524;28;20718;-57
2022/09/05 03:12:40;;;;;;;1.27;0.93;;;;;;;14.59;100.00;99949.53;5089774;28;20208;-65
2022/09/05 03:15:52;;;;;;;0.63;0.63;;;;;;;14.57;99.24;99948.81;5089833;28;20205;-57
2022/09/05 03:19:06;;;;;;;0.70;0.70;;;;;;;14.46;99.57;99947.03;5030582;28;20240;-65
2022/09/05 03:22:23;;;;;;;0.57;0.57;;;;;;;14.47;100.00;99950.44;5090002;28;20203;-58
2022/09/05 03:25:26;;;;;;;0.40;0.40;;;;;;;14.46;100.00;99951.38;5007243;28;20232;-65
2022/09/05 03:28:31;;;;;;;0.73;0.50;;;;;;;14.41;100.00;99954.28;5068364;28;20225;-65
2022/09/05 03:31:18;;;;;;;0.40;0.40;;;;;;;14.42;100.00;99961.06;5089777;28;20259;-57
2022/09/05 03:34:28;;;;;;;0.77;0.67;;;;;;;14.41;99.68;99968.91;5089865;28;20695;-65
2022/09/05 03:37:31;;;;;;;0.30;0.30;;;;;;;14.41;99.72;99966.31;5082390;28;20596;-57
2022/09/05 03:40:36;;;;;;;1.17;1.07;;;;;;;14.39;99.36;99965.59;5089633;28;20209;-65
2022/09/05 03:43:34;;;;;;;0.67;0.67;;;;;;;14.38;99.79;99963.97;5089593;28;20218;-65
2022/09/05 03:46:26;;;;;;;0.73;0.50;;;;;;;14.35;99.78;99977.88;5048342;28;20560;-65
2022/09/05 03:49:14;;;;;;;0.60;0.57;;;;;;;14.31;99.54;99983.34;5089534;28;20229;-65
2022/09/05 03:51:51;;;;;;;0.30;0.30;;;;;;;14.32;99.04;99974.72;5089618;28;20210;-65
2022/09/05 03:54:47;;;;;;;0.83;0.70;;;;;;;14.31;98.90;99985.94;5089913;28;20245;-57
2022/09/05 03:57:32;;;;;;;0.47;0.47;;;;;;;14.26;99.27;99992.25;5089086;28;20205;-65
2022/09/05 04:00:19;;;;;;;0.70;0.70;;;;;;;14.19;99.49;99985.91;5094086;28;20699;-57
2022/09/05 04:03:01;;;;;;;0.30;0.30;;;;;;;14.19;99.98;99985.91;5093695;28;20224;-58
2022/09/05 04:05:31;;;;;;;0.70;0.70;;;;;;;14.29;99.39;99985.25;5093340;28;20230;-57
2022/09/05 04:08:07;;;;;;;0.13;0.13;;;;;;;14.29;99.16;99985.25;5093423;28;20286;-65
2022/09/05 04:10:44;;;;;;;1.07;0.97;;;;;;;14.27;99.88;99988.72;5093646;28;20186;-65
2022/09/05 04:13:21;;;;;;;0.70;0.70;;;;;;;14.32;99.22;99985.03;5093219;28;20279;-65
2022/09/05 04:15:59;;;;;;;0.70;0.70;;;;;;;14.33;99.18;99989.22;5092936;28;20225;-65
2022/09/05 04:18:33;;;;;;;0.70;0.70;;;;;;;14.39;99.06;99993.91;5093466;28;20233;-57
2022/09/05 04:21:06;;;;;;;0.90;0.90;;;;;;;14.42;98.97;99993.69;5093235;28;20190;-65
2022/09/05 04:23:46;;;;;;;0.30;0.30;;;;;;;14.42;98.58;99989.34;5093539;28;20225;-65
2022/09/05 04:26:27;;;;;;;0.83;0.80;;;;;;;14.42;99.05;99998.84;5092939;28;20251;-58
2022/09/05 04:29:03;;;;;;;0.70;0.67;;;;;;;14.42;99.42;100003.97;5092906;28;20323;-65
2022/09/05 04:31:38;;;;;;;0.50;0.50;;;;;;;14.43;99.58;100005.63;5092678;28;20200;-57
2022/09/05 04:34:18;;;;;;;0.80;0.80;;;;;;;14.43;100.00;100008.22;5093553;28;20223;-57
2022/09/05 04:36:58;;;;;;;0.53;0.43;;;;;;;14.47;100.00;100010.44;5093009;28;20701;-65
2022/09/05 04:39:26;;;;;;;0.80;0.80;;;;;;;14.58;100.00;100017.41;5092494;28;20224;-65
2022/09/05 04:42:01;;;;;;;0.73;0.73;;;;;;;14.68;100.00;100013.19;5092593;28;20658;-64
2022/09/05 04:44:32;;;;;;;0.80;0.60;;;;;;;14.79;100.00;100007.25;5092553;28;20214;-64
2022/09/05 04:47:07;;;;;;;0.80;0.80;;;;;;;14.90;100.00;100011.59;5093371;28;20612;-58
2022/09/05 04:49:40;;;;;;;0.73;0.70;;;;;;;14.96;100.00;100010.31;5093217;28;20570;-57
2022/09/05 04:52:41;;;;;;;0.83;0.83;;;;;;;15.06;100.00;100006.91;5092243;28;20198;-58
2022/09/05 04:55:11;;;;;;;0.60;0.60;;;;;;;15.21;100.00;100015.22;5092388;28;20194;-65
2022/09/05 04:57:46;;;;;;;0.70;0.70;;;;;;;15.38;100.00;100011.34;5089916;28;20233;-58
2022/09/05 05:00:16;;;;;;;0.70;0.70;;;;;;;15.61;100.00;100004.41;5092189;28;20185;-65
2022/09/05 05:02:46;;;;;;;1.00;0.90;;;;;;;15.75;100.00;100011.09;5092267;28;20620;-64
2022/09/05 05:05:20;;;;;;;1.00;0.80;;;;;;;15.98;99.91;100025.56;5092162;28;20598;-65
2022/09/05 05:07:54;;;;;;;0.70;0.70;;;;;;;16.12;100.00;100021.06;5077889;28;20222;-65
2022/09/05 05:10:28;;;;;;;0.77;0.77;;;;;;;16.33;99.75;100027.06;5071826;28;20194;-65
2022/09/05 05:13:09;;;;;;;0.90;0.80;;;;;;;16.56;98.13;100034.69;5070855;28;20257;-65
2022/09/05 05:15:48;;;;;;;1.70;0.93;;;;;;;16.75;96.12;100034.78;5072207;28;20277;-65
2022/09/05 05:18:22;;;;;;;2.13;1.30;;;;;;;16.95;96.16;100035.75;5071276;28;20232;-65
2022/09/05 05:20:56;;;;;;;1.00;0.93;;;;;;;17.13;95.11;100038.56;5071399;28;20198;-65
2022/09/05 05:23:33;;;;;;;1.57;1.17;;;;;;;17.29;93.67;100043.25;5071306;28;20234;-58
2022/09/05 05:26:02;;;;;;;1.40;1.00;;;;;;;17.42;92.23;100044.66;5071137;28;20763;-65
2022/09/05 05:28:48;;;;;;;1.30;1.20;;;;;;;17.57;90.52;100044.28;5072084;28;20220;-58
2022/09/05 05:31:18;;;;;;;1.20;0.97;;;;;;;17.69;90.23;100040.66;5090909;28;20229;-58
2022/09/05 05:33:48;;;;;;;1.83;1.10;;;;;;;17.87;91.03;100044.25;5091348;28;20236;-58
2022/09/05 05:36:22;;;;;;;1.03;0.93;;;;;;;18.13;89.91;100046.31;5091220;28;20202;-58
2022/09/05 05:38:56;;;;;;;0.93;0.90;;;;;;;18.33;88.36;100045.34;5091059;28;20613;-58
2022/09/05 05:41:27;;;;;;;0.87;0.83;;;;;;;18.50;84.40;100056.81;5091647;28;20241;-58
2022/09/05 05:43:56;;;;;;;0.60;0.60;;;;;;;18.62;82.95;100054.88;5090927;28;20779;-58
2022/09/05 05:46:31;;;;;;;1.80;1.10;;;;;;;18.76;84.64;100051.88;5090474;28;20231;-66
2022/09/05 05:49:14;;;;;;;0.87;0.83;;;;;;;18.86;80.32;100062.22;5092035;28;20228;-65
2022/09/05 05:51:50;;;;;;;0.80;0.80;;;;;;;19.02;82.04;100063.38;5091054;28;20201;-58
2022/09/05 05:54:26;;;;;;;1.73;1.13;;;;;;;19.18;81.62;100061.03;5090308;28;20269;-66
2022/09/05 05:57:31;;;;;;;1.20;1.10;;;;;;;19.36;81.11;100074.06;5090998;28;20587;-65
2022/09/05 06:00:13;;;;;;;1.23;1.00;;;;;;;19.44;80.29;100076.75;5091238;28;20208;-58
2022/09/05 06:03:20;;;;;;;1.10;0.80;;;;;;;19.58;81.71;100072.88;5090967;28;20255;-66
2022/09/05 06:06:08;;;;;;;1.30;1.10;;;;;;;19.77;79.52;100084.94;5063634;28;20237;-59
2022/09/05 06:09:01;;;;;;;1.10;1.00;;;;;;;19.86;79.39;100071.06;5090368;28;20273;-58
2022/09/05 06:11:54;;;;;;;1.40;1.00;;;;;;;20.04;77.63;100074.53;5091267;28;20200;-58
2022/09/05 06:14:58;;;;;;;1.10;1.00;;;;;;;20.19;76.93;100079.19;5091121;28;20251;-58
2022/09/05 06:18:09;;;;;;;0.97;0.90;;;;;;;20.35;79.47;100076.72;5074258;28;20290;-58
2022/09/05 06:21:15;;;;;;;1.10;1.00;;;;;;;20.41;75.21;100086.53;5081110;28;20239;-58
2022/09/05 06:24:09;;;;;;;0.87;0.87;;;;;;;20.40;78.18;100079.69;5049479;28;20232;-66
2022/09/05 06:27:02;;;;;;;1.10;0.87;;;;;;;20.63;76.35;100089.66;5092011;28;20233;-66
2022/09/05 06:29:41;;;;;;;1.20;1.10;;;;;;;20.60;72.78;100089.97;5089236;28;20806;-66
2022/09/05 06:32:25;;;;;;;1.47;1.13;;;;;;;20.70;72.04;100101.88;5090038;28;20215;-66
2022/09/05 06:35:20;;;;;;;0.97;0.87;;;;;;;20.74;73.67;100107.59;5091335;28;20606;-58
2022/09/05 06:38:01;;;;;;;1.27;0.80;;;;;;;20.78;71.76;100098.53;5087108;28;20238;-58
2022/09/05 06:40:35;;;;;;;1.23;0.80;;;;;;;20.87;73.19;100102.00;5090457;28;20232;-66
2022/09/05 06:43:13;;;;;;;1.20;0.97;;;;;;;20.93;68.13;100104.00;5091596;28;20221;-58
2022/09/05 06:45:58;;;;;;;0.60;0.60;;;;;;;21.04;71.42;100106.34;5082350;28;20217;-66
2022/09/05 06:48:30;;;;;;;0.67;0.67;;;;;;;21.21;70.45;100109.84;5088828;28;20218;-59
2022/09/05 06:51:28;;;;;;;0.97;0.87;;;;;;;21.17;68.79;100105.91;5089062;28;20209;-60
2022/09/05 06:54:10;;;;;;;1.07;0.90;;;;;;;21.02;65.53;100111.69;5088323;28;20639;-58
2022/09/05 06:57:02;;;;;;;0.60;0.60;;;;;;;21.14;68.24;100103.63;5088813;28;20194;-66
2022/09/05 06:59:59;;;;;;;0.63;0.63;;;;;;;21.36;68.01;100117.91;5048506;28;20635;-66
2022/09/05 07:02:34;;;;;;;0.97;0.90;;;;;;;21.47;66.08;100109.84;5087660;28;20720;-58
2022/09/05 07:05:17;;;;;;;0.77;0.70;;;;;;;21.49;67.13;100107.88;5088509;28;20194;-58
2022/09/05 07:07:50;;;;;;;0.53;0.53;;;;;;;21.64;66.65;100106.34;5086836;28;20772;-58
2022/09/05 07:10:26;;;;;;;0.70;0.70;;;;;;;21.86;64.48;100117.13;5088672;28;20208;-62
2022/09/05 07:13:03;;;;;;;0.87;0.83;;;;;;;22.00;62.45;100118.31;5088707;28;20215;-58
2022/09/05 07:15:39;;;;;;;0.67;0.67;;;;;;;22.16;62.23;100115.72;5088168;28;20244;-66
2022/09/05 07:18:16;;;;;;;1.20;0.97;;;;;;;22.22;64.58;100122.94;5086510;28;20617;-66
2022/09/05 07:20:51;;;;;;;0.80;0.70;;;;;;;22.17;60.17;100127.81;5088070;28;20204;-58
2022/09/05 07:23:39;;;;;;;0.90;0.90;;;;;;;22.19;62.67;100120.66;5085865;28;20732;-66
2022/09/05 07:26:09;;;;;;;0.63;0.63;;;;;;;22.24;63.23;100123.59;5088192;28;20226;-66
2022/09/05 07:28:39;;;;;;;1.10;1.00;;;;;;;22.47;61.04;100125.56;5088659;28;20232;-67
2022/09/05 07:31:12;;;;;;;0.63;0.63;;;;;;;22.69;64.92;100122.31;5088140;28;20205;-58
2022/09/05 07:33:42;;;;;;;1.00;0.88;;;;;;;22.99;66.50;100117.41;5068964;28;20255;-58
2022/09/05 07:36:12;;;;;;;0.98;0.93;;;;;;;23.11;57.94;100121.31;5086296;28;20206;-59
2022/09/05 07:38:42;;;;;;;0.82;0.80;;;;;;;23.33;61.24;100125.00;5085646;28;20225;-58
2022/09/05 07:41:22;;;;;;;0.63;0.63;;;;;;;23.50;58.91;100125.72;5088523;28;20197;-67
2022/09/05 07:43:55;;;;;;;1.55;1.10;;;;;;;23.54;57.35;100127.03;5087836;28;20221;-58
2022/09/05 07:46:24;;;;;;;1.40;1.20;;;;;;;23.77;60.17;100131.56;5085035;28;20263;-58
2022/09/05 07:48:58;;;;;;;1.33;1.08;;;;;;;24.00;62.72;100126.34;5085565;28;20254;-59
2022/09/05 07:51:27;;;;;;;0.77;0.77;;;;;;;24.03;54.54;100129.44;5085022;28;20206;-67
2022/09/05 07:54:00;;;;;;;1.83;0.82;;;;;;;24.15;54.42;100125.44;5090234;28;20226;-66
2022/09/05 07:56:46;;;;;;;0.68;0.68;;;;;;;24.20;53.54;100118.88;5105970;28;20205;-58
2022/09/05 07:59:16;;;;;;;0.82;0.82;;;;;;;24.36;57.35;100118.75;5096168;28;20214;-59
2022/09/05 08:01:45;;;;;;;0.60;0.60;;;;;;;24.57;59.35;100118.13;5086885;28;20216;-67
2022/09/05 08:04:26;;;;;;;0.95;0.85;;;;;;;24.57;59.32;100118.13;5086433;28;20237;-59
2022/09/05 08:06:56;;;;;;;0.80;0.80;;;;;;;24.77;53.20;100128.91;5088637;28;20310;-59
2022/09/05 08:09:30;;;;;;;0.73;0.73;;;;;;;24.97;57.24;100119.56;5089734;28;20583;-66
2022/09/05 08:12:00;;;;;;;0.70;0.57;;;;;;;24.95;51.21;100121.53;5089480;28;20597;-58
2022/09/05 08:14:56;;;;;;;0.65;0.52;;;;;;;25.06;50.77;100118.47;5089244;28;20251;-67
2022/09/05 08:17:26;;;;;;;1.52;0.80;;;;;;;25.00;52.89;100119.19;5102926;28;20209;-67
2022/09/05 08:20:06;;;;;;;1.08;0.98;;;;;;;25.04;52.42;100117.84;5090724;28;20237;-58
2022/09/05 08:22:43;;;;;;;1.10;1.00;;;;;;;25.22;54.26;100116.69;5089214;28;20214;-67
2022/09/05 08:25:15;;;;;;;0.85;0.77;;;;;;;25.30;53.95;100119.22;5088732;28;20205;-59
2022/09/05 08:27:57;;;;;;;0.70;0.70;;;;;;;25.21;51.48;100113.28;5089243;28;20742;-66
2022/09/05 08:30:25;;;;;;;1.05;0.88;;;;;;;25.03;53.57;100107.56;5088670;28;20202;-66
2022/09/05 08:32:59;;;;;;;0.85;0.77;;;;;;;25.07;54.53;100112.28;5089124;28;20661;-67
2022/09/05 08:35:31;;;;;;;0.65;0.63;;;;;;;25.18;52.75;100115.44;5088663;28;20247;-66
2022/09/05 08:37:59;;;;;;;0.88;0.88;;;;;;;25.14;50.20;100109.75;5088839;28;20214;-58
2022/09/05 08:40:34;;;;;;;0.68;0.60;;;;;;;25.23;50.24;100110.50;5087859;28;20205;-59
2022/09/05 08:43:08;;;;;;;1.08;0.85;;;;;;;25.11;50.82;100104.06;5089267;28;20218;-58
2022/09/05 08:45:40;;;;;;;0.65;0.65;;;;;;;24.85;52.14;100105.28;5090228;28;20205;-58
2022/09/05 08:48:18;;;;;;;0.80;0.80;;;;;;;24.91;56.55;100107.19;5091019;28;20256;-58
2022/09/05 08:51:05;;;;;;;1.00;0.90;;;;;;;25.22;54.71;100106.22;5090106;28;20649;-59
2022/09/05 08:53:52;;;;;;;0.60;0.60;;;;;;;25.39;50.10;100107.66;5091710;28;20591;-59
2022/09/05 08:56:23;;;;;;;0.90;0.90;;;;;;;25.53;53.23;100109.44;5073762;28;20210;-59
2022/09/05 08:58:58;;;;;;;0.98;0.75;;;;;;;25.49;50.51;100105.59;5088854;28;20226;-67
2022/09/05 09:01:32;;;;;;;1.10;1.00;;;;;;;25.23;49.19;100107.88;5086348;28;20198;-67
2022/09/05 09:04:15;;;;;;;0.60;0.60;;;;;;;25.37;48.61;100104.44;5089931;28;20226;-59
2022/09/05 09:07:07;;;;;;;0.93;0.88;;;;;;;25.52;50.09;100105.22;5088363;28;20218;-67
2022/09/05 09:09:42;;;;;;;0.70;0.70;;;;;;;25.78;51.64;100100.47;5087112;28;20197;-66
2022/09/05 09:12:37;;;;;;;0.80;0.80;;;;;;;25.94;51.49;100110.75;5086488;28;20659;-67
2022/09/05 09:15:15;;;;;;;0.70;0.70;;;;;;;26.06;47.68;100104.00;5084333;28;20209;-66
2022/09/05 09:17:44;;;;;;;1.15;0.90;;;;;;;26.32;47.30;100103.44;5087480;28;20229;-67
2022/09/05 09:20:18;;;;;;;0.73;0.70;;;;;;;26.16;47.50;100103.72;5088465;28;20199;-59
2022/09/05 09:22:54;;;;;;;0.73;0.73;;;;;;;26.17;53.39;100105.31;5088521;28;20225;-67
2022/09/05 09:25:24;;;;;;;0.70;0.70;;;;;;;26.36;48.73;100109.94;5089633;28;20212;-58
2022/09/05 09:28:27;;;;;;;0.80;0.73;;;;;;;26.55;50.34;100107.69;5090269;28;20244;-66
2022/09/05 09:30:58;;;;;;;1.20;0.70;;;;;;;26.56;47.74;100114.59;5073981;28;20210;-58
2022/09/05 09:33:37;;;;;;;1.63;1.00;;;;;;;26.58;48.68;100105.50;5089792;28;20226;-59
2022/09/05 09:36:15;;;;;;;0.60;0.60;;;;;;;26.72;48.32;100100.38;5089698;28;20318;-60
2022/09/05 09:39:00;;;;;;;1.02;0.80;;;;;;;26.69;43.50;100109.44;5090625;28;20221;-66
2022/09/05 09:41:44;;;;;;;0.93;0.80;;;;;;;26.80;49.36;100103.66;5090639;28;20202;-67
2022/09/05 09:44:47;;;;;;;1.30;0.77;;;;;;;26.91;47.59;100104.09;5089308;28;20218;-67
2022/09/05 09:47:28;;;;;;;0.57;0.57;;;;;;;26.73;48.54;100097.53;5088049;28;20657;-59
2022/09/05 09:50:22;;;;;;;0.73;0.73;;;;;;;26.82;47.45;100099.03;5091031;28;20207;-66
2022/09/05 09:53:12;;;;;;;1.30;0.90;;;;;;;26.46;46.19;100101.75;5091195;28;20226;-66
2022/09/05 09:56:04;;;;;;;0.70;0.70;;;;;;;26.45;47.75;100091.47;5090439;28;20198;-59
2022/09/05 09:59:03;;;;;;;0.88;0.88;;;;;;;26.73;49.95;100096.72;5090855;28;20235;-67
2022/09/05 10:01:38;;;;;;;1.05;0.98;;;;;;;26.67;48.06;100097.50;5090726;28;20217;-59
2022/09/05 10:04:22;;;;;;;0.77;0.75;;;;;;;26.60;48.75;100093.03;5090711;28;20213;-67
2022/09/05 10:07:26;;;;;;;1.13;1.00;;;;;;;26.29;50.06;100098.56;5090906;28;20269;-58
2022/09/05 10:10:39;;;;;;;0.60;0.60;;;;;;;26.32;50.11;100086.91;5090801;28;20233;-66
2022/09/05 10:13:22;;;;;;;0.82;0.80;;;;;;;26.30;48.62;100089.72;5008182;28;20256;-67
2022/09/05 10:16:16;;;;;;;0.60;0.60;;;;;;;26.48;48.51;100093.72;5008063;28;20212;-66
2022/09/05 10:19:04;;;;;;;1.10;1.00;;;;;;;26.55;48.36;100091.97;5076419;28;20241;-67
2022/09/05 10:21:51;;;;;;;0.60;0.60;;;;;;;26.67;47.55;100093.06;5090447;28;20213;-59
2022/09/05 10:24:49;;;;;;;0.50;0.50;;;;;;;26.59;50.20;100087.97;5090464;28;20221;-59
2022/09/05 10:27:31;;;;;;;0.60;0.60;;;;;;;26.61;47.90;100086.75;5090715;28;20234;-59
2022/09/05 10:30:08;;;;;;;0.70;0.70;;;;;;;26.52;47.96;100085.28;5088367;28;20197;-59
2022/09/05 10:32:41;;;;;;;0.85;0.73;;;;;;;26.43;48.68;100078.53;5090531;28;20221;-59
2022/09/05 10:35:18;;;;;;;0.73;0.73;;;;;;;26.56;48.26;100072.63;5090113;28;20202;-58
2022/09/05 10:37:49;;;;;;;0.65;0.60;;;;;;;26.58;45.36;100079.28;5089570;28;20213;-60
2022/09/05 10:40:22;;;;;;;0.75;0.75;;;;;;;26.71;44.90;100070.69;5080319;28;20210;-66
2022/09/05 10:42:52;;;;;;;0.65;0.65;;;;;;;26.94;47.56;100069.63;5089801;28;20218;-58
2022/09/05 10:45:26;;;;;;;0.80;0.80;;;;;;;26.54;49.91;100069.38;5089667;28;20263;-58
2022/09/05 10:48:07;;;;;;;0.82;0.82;;;;;;;26.40;49.01;100053.50;5090033;28;20257;-58
2022/09/05 10:50:36;;;;;;;0.75;0.75;;;;;;;26.53;49.00;100067.72;5088943;28;20225;-66
2022/09/05 10:53:19;;;;;;;0.82;0.82;;;;;;;26.39;48.70;100057.13;5089594;28;20236;-65
2022/09/05 10:56:00;;;;;;;0.60;0.60;;;;;;;25.89;45.54;100055.47;5089417;28;20282;-66
2022/09/05 10:58:53;;;;;;;1.38;0.90;;;;;;;26.11;49.22;100043.97;5089029;28;20225;-58
2022/09/05 11:01:32;;;;;;;1.00;0.82;;;;;;;26.31;48.84;100053.84;5079058;28;20213;-58
2022/09/05 11:04:11;;;;;;;0.70;0.70;;;;;;;26.49;51.59;100050.72;5088383;28;20814;-66
2022/09/05 11:06:52;;;;;;;1.10;1.02;;;;;;;26.49;48.35;100035.81;5089560;28;20253;-58
2022/09/05 11:09:37;;;;;;;0.90;0.80;;;;;;;26.79;52.67;100041.69;5088531;28;20222;-57
2022/09/05 11:12:15;;;;;;;1.02;0.93;;;;;;;26.97;47.17;100037.75;5089611;28;20586;-68
2022/09/05 11:14:51;;;;;;;0.88;0.88;;;;;;;27.02;48.26;100035.34;5089296;28;20202;-65
2022/09/05 11:17:29;;;;;;;1.40;1.00;;;;;;;26.90;46.51;100031.66;5089492;28;20225;-65
2022/09/05 11:20:26;;;;;;;1.00;0.90;;;;;;;27.02;48.06;100033.53;5089317;28;20247;-57
2022/09/05 11:23:03;;;;;;;0.75;0.75;;;;;;;27.15;48.65;100031.97;5089460;28;20249;-65
2022/09/05 11:25:35;;;;;;;0.80;0.70;;;;;;;27.23;48.07;100032.66;5088954;28;20209;-62
2022/09/05 11:28:12;;;;;;;0.82;0.82;;;;;;;27.18;48.14;100032.41;5083588;28;20234;-60
2022/09/05 11:30:43;;;;;;;0.90;0.77;;;;;;;27.38;48.80;100019.34;5068769;28;20213;-67
2022/09/05 11:33:38;;;;;;;0.80;0.80;;;;;;;27.30;47.14;100012.47;5073716;28;20214;-60
2022/09/05 11:36:09;;;;;;;1.15;1.08;;;;;;;27.02;49.36;100015.16;5071613;28;20191;-66
2022/09/05 11:39:02;;;;;;;1.00;0.90;;;;;;;26.82;45.74;100015.06;5074039;28;20223;-66
2022/09/05 11:41:50;;;;;;;0.80;0.80;;;;;;;26.83;50.17;100011.44;5069264;28;20203;-67
2022/09/05 11:44:26;;;;;;;1.60;1.13;;;;;;;27.04;47.38;100012.34;5081655;28;20233;-67
2022/09/05 11:47:37;;;;;;;0.70;0.65;;;;;;;27.18;44.60;100008.78;5088783;28;20202;-67
2022/09/05 11:50:37;;;;;;;1.08;0.95;;;;;;;27.45;45.25;100008.88;5067763;28;20221;-60
2022/09/05 11:53:36;;;;;;;0.80;0.80;;;;;;;27.11;46.29;100005.28;5085354;28;20238;-60
2022/09/05 11:56:20;;;;;;;1.33;0.98;;;;;;;26.55;47.17;100002.78;5089194;28;20636;-67
2022/09/05 11:59:20;;;;;;;1.90;1.00;;;;;;;26.52;48.31;100003.97;5087964;28;20222;-60
2022/09/05 12:02:06;;;;;;;1.25;1.00;;;;;;;26.26;47.96;99998.53;5056431;28;20656;-60
2022/09/05 12:04:50;;;;;;;1.23;1.13;;;;;;;26.26;46.87;99999.34;5088747;28;20209;-66
2022/09/05 12:07:51;;;;;;;1.45;1.08;;;;;;;26.32;50.10;99993.31;5089258;28;20284;-60
2022/09/05 12:10:34;;;;;;;0.90;0.90;;;;;;;26.36;49.85;99991.97;5088618;28;20202;-60
2022/09/05 12:13:22;;;;;;;0.82;0.80;;;;;;;26.38;48.44;99987.34;5088798;28;20236;-60
2022/09/05 12:15:50;;;;;;;0.95;0.90;;;;;;;26.45;48.29;99990.00;5089225;28;20577;-67
2022/09/05 12:18:27;;;;;;;1.30;1.10;;;;;;;26.56;49.51;99989.50;5088701;28;20234;-67
2022/09/05 12:21:14;;;;;;;0.77;0.77;;;;;;;26.64;47.04;99991.13;5092571;28;20577;-67
2022/09/05 12:23:51;;;;;;;0.88;0.88;;;;;;;26.69;48.25;99988.75;5092474;28;20714;-67
2022/09/05 12:26:23;;;;;;;1.45;0.88;;;;;;;26.78;46.60;99984.94;5092531;28;20503;-67
2022/09/05 12:28:56;;;;;;;0.80;0.80;;;;;;;26.70;46.19;99974.63;5091811;28;20504;-67
2022/09/05 12:31:30;;;;;;;1.45;0.90;;;;;;;26.67;45.78;99980.25;5092487;28;20209;-66
2022/09/05 12:34:00;;;;;;;0.80;0.80;;;;;;;26.74;46.16;99981.13;5091232;28;20702;-60